createdAt,value
2023-03-10T00:02:24.858Z,97941.41
2023-03-10T00:04:52.861Z,97930.44
2023-03-10T00:07:20.288Z,97924.59
2023-03-10T00:09:47.627Z,97923.72
2023-03-10T00:12:16.087Z,97925.78
2023-03-10T00:14:43.296Z,97921.66
2023-03-10T00:17:10.581Z,97925.22
2023-03-10T00:19:38.004Z,97919.22
2023-03-10T00:22:05.205Z,97919.81
2023-03-10T00:24:32.376Z,97918.69
2023-03-10T00:26:59.797Z,97921.47
2023-03-10T00:29:28.202Z,97924.03
2023-03-10T00:31:55.346Z,97912.84
2023-03-10T00:34:22.790Z,97924.78
2023-03-10T00:36:51.781Z,97919.81
2023-03-10T00:39:18.929Z,97911.88
2023-03-10T00:41:46.340Z,97911.03
2023-03-10T00:44:13.526Z,97907.22
2023-03-10T00:46:40.744Z,97899.16
2023-03-10T00:49:10.534Z,97907.16
2023-03-10T00:51:37.682Z,97907.06
2023-03-10T00:54:04.818Z,97895.50
2023-03-10T00:56:32.314Z,97893.19
2023-03-10T00:58:59.994Z,97897.69
2023-03-10T01:01:28.599Z,97890.56
2023-03-10T01:03:58.054Z,97885.97
2023-03-10T01:06:25.562Z,97885.59
2023-03-10T01:08:54.996Z,97878.50
2023-03-10T01:11:23.633Z,97881.81
2023-03-10T01:13:50.963Z,97883.81
2023-03-10T01:16:18.177Z,97874.28
2023-03-10T01:18:45.677Z,97873.41
2023-03-10T01:21:19.737Z,97864.72
2023-03-10T01:23:47.263Z,97862.34
2023-03-10T01:26:18.568Z,97864.28
2023-03-10T01:28:46.448Z,97864.38
2023-03-10T01:31:14.336Z,97852.19
2023-03-10T01:33:42.918Z,97845.53
2023-03-10T01:36:11.028Z,97843.44
2023-03-10T01:38:39.056Z,97848.47
2023-03-10T01:41:06.610Z,97836.69
2023-03-10T01:43:37.131Z,97836.00
2023-03-10T01:46:04.505Z,97841.75
2023-03-10T01:48:33.114Z,97838.91
2023-03-10T01:51:00.655Z,97832.00
2023-03-10T01:53:28.151Z,97827.41
2023-03-10T01:55:56.911Z,97822.53
2023-03-10T01:58:25.036Z,97814.37
2023-03-10T02:00:52.921Z,97814.91
2023-03-10T02:03:21.943Z,97810.88
2023-03-10T02:05:52.034Z,97810.81
2023-03-10T02:08:19.477Z,97801.78
2023-03-10T02:10:46.710Z,97804.84
2023-03-10T02:13:14.439Z,97806.03
2023-03-10T02:15:41.699Z,97794.34
2023-03-10T02:18:10.641Z,97795.88
2023-03-10T02:20:41.115Z,97792.50
2023-03-10T02:23:08.512Z,97789.69
2023-03-10T02:25:41.810Z,97791.41
2023-03-10T02:28:09.220Z,97781.56
2023-03-10T02:30:49.613Z,97783.00
2023-03-10T02:33:18.906Z,97781.31
2023-03-10T02:35:46.126Z,97787.47
2023-03-10T02:38:13.840Z,97781.63
2023-03-10T02:40:41.269Z,97783.50
2023-03-10T02:43:18.784Z,97778.81
2023-03-10T02:45:47.639Z,97776.44
2023-03-10T02:48:16.454Z,97776.94
2023-03-10T02:50:43.672Z,97773.59
2023-03-10T02:53:12.307Z,97771.88
2023-03-10T02:55:40.148Z,97771.78
2023-03-10T02:58:07.550Z,97767.37
2023-03-10T03:00:38.780Z,97770.16
2023-03-10T03:03:07.014Z,97765.13
2023-03-10T03:05:34.592Z,97759.41
2023-03-10T03:08:01.814Z,97750.66
2023-03-10T03:10:29.027Z,97748.25
2023-03-10T03:12:56.749Z,97746.50
2023-03-10T03:15:25.002Z,97742.97
2023-03-10T03:17:54.302Z,97742.34
2023-03-10T03:20:22.088Z,97732.97
2023-03-10T03:22:49.578Z,97724.91
2023-03-10T03:25:17.585Z,97725.81
2023-03-10T03:27:45.891Z,97722.00
2023-03-10T03:30:14.398Z,97719.12
2023-03-10T03:32:42.200Z,97713.87
2023-03-10T03:35:14.187Z,97704.41
2023-03-10T03:37:41.886Z,97711.62
2023-03-10T03:40:12.876Z,97700.44
2023-03-10T03:42:42.918Z,97695.38
2023-03-10T03:45:10.705Z,97689.13
2023-03-10T03:47:37.871Z,97689.22
2023-03-10T03:50:06.233Z,97685.97
2023-03-10T03:52:33.835Z,97681.12
2023-03-10T03:55:01.583Z,97676.91
2023-03-10T03:57:29.311Z,97677.94
2023-03-10T03:59:56.491Z,97665.25
2023-03-10T04:02:23.868Z,97663.16
2023-03-10T04:04:53.144Z,97663.66
2023-03-10T04:07:21.782Z,97659.34
2023-03-10T04:09:49.462Z,97659.97
2023-03-10T04:12:17.277Z,97657.81
2023-03-10T04:14:45.923Z,97654.25
2023-03-10T04:17:13.214Z,97653.66
2023-03-10T04:19:40.651Z,97648.72
2023-03-10T04:22:08.655Z,97655.47
2023-03-10T04:24:39.651Z,97653.09
2023-03-10T04:27:09.588Z,97648.28
2023-03-10T04:29:37.044Z,97648.97
2023-03-10T04:32:05.997Z,97646.31
2023-03-10T04:34:33.841Z,97646.13
2023-03-10T04:37:01.831Z,97646.81
2023-03-10T04:39:29.137Z,97640.94
2023-03-10T04:41:56.591Z,97647.91
2023-03-10T04:44:31.002Z,97639.38
2023-03-10T04:46:59.286Z,97639.53
2023-03-10T04:49:27.031Z,97639.16
2023-03-10T04:51:54.755Z,97641.22
2023-03-10T04:54:22.183Z,97636.00
2023-03-10T04:56:49.419Z,97633.31
2023-03-10T04:59:16.681Z,97627.09
2023-03-10T05:01:44.525Z,97623.25
2023-03-10T05:04:11.759Z,97622.81
2023-03-10T05:06:39.095Z,97621.41
2023-03-10T05:09:06.880Z,97615.34
2023-03-10T05:11:34.254Z,97607.31
2023-03-10T05:14:01.799Z,97606.97
2023-03-10T05:16:29.508Z,97610.03
2023-03-10T05:18:56.904Z,97611.12
2023-03-10T05:21:24.479Z,97607.31
2023-03-10T05:23:52.184Z,97604.44
2023-03-10T05:26:19.659Z,97605.97
2023-03-10T05:28:47.640Z,97603.00
2023-03-10T05:31:16.043Z,97600.94
2023-03-10T05:33:43.671Z,97592.16
2023-03-10T05:36:11.976Z,97591.44
2023-03-10T05:38:39.689Z,97593.81
2023-03-10T05:41:10.719Z,97594.63
2023-03-10T05:43:38.555Z,97588.50
2023-03-10T05:46:06.592Z,97577.63
2023-03-10T05:48:35.103Z,97581.88
2023-03-10T05:51:07.219Z,97582.12
2023-03-10T05:53:34.954Z,97575.75
2023-03-10T05:56:06.653Z,97574.75
2023-03-10T05:58:33.887Z,97572.59
2023-03-10T06:01:01.298Z,97571.34
2023-03-10T06:03:47.312Z,97569.44
2023-03-10T06:06:14.788Z,97561.81
2023-03-10T06:08:43.067Z,97566.66
2023-03-10T06:11:11.242Z,97550.59
2023-03-10T06:13:38.669Z,97553.59
2023-03-10T06:16:06.410Z,97556.34
2023-03-10T06:18:33.778Z,97566.28
2023-03-10T06:21:04.120Z,97562.16
2023-03-10T06:23:31.267Z,97560.56
2023-03-10T06:26:00.153Z,97564.28
2023-03-10T06:28:32.773Z,97561.31
2023-03-10T06:31:00.600Z,97549.69
2023-03-10T06:33:28.510Z,97553.97
2023-03-10T06:35:55.776Z,97557.53
2023-03-10T06:38:23.358Z,97550.81
2023-03-10T06:40:50.806Z,97549.00
2023-03-10T06:43:18.032Z,97547.47
2023-03-10T06:45:45.614Z,97553.22
2023-03-10T06:48:13.289Z,97553.47
2023-03-10T06:50:42.135Z,97546.69
2023-03-10T06:53:09.880Z,97557.44
2023-03-10T06:55:37.479Z,97556.44
2023-03-10T06:58:04.628Z,97545.41
2023-03-10T07:00:31.907Z,97550.59
2023-03-10T07:02:59.319Z,97554.59
2023-03-10T07:05:27.437Z,97553.97
2023-03-10T07:07:55.436Z,97547.34
2023-03-10T07:10:23.074Z,97544.44
2023-03-10T07:12:55.183Z,97545.63
2023-03-10T07:15:22.902Z,97545.75
2023-03-10T07:17:50.217Z,97557.53
2023-03-10T07:20:17.865Z,97549.94
2023-03-10T07:22:45.314Z,97545.84
2023-03-10T07:25:12.473Z,97543.66
2023-03-10T07:27:39.623Z,97542.66
2023-03-10T07:30:07.517Z,97542.22
2023-03-10T07:32:34.802Z,97547.69
2023-03-10T07:35:02.060Z,97547.97
2023-03-10T07:37:29.492Z,97545.03
2023-03-10T07:39:56.688Z,97541.97
2023-03-10T07:42:23.841Z,97545.00
2023-03-10T07:44:51.308Z,97549.03
2023-03-10T07:47:18.615Z,97532.28
2023-03-10T07:49:47.189Z,97538.63
2023-03-10T07:52:15.234Z,97531.44
2023-03-10T07:54:44.212Z,97525.69
2023-03-10T07:57:14.440Z,97523.19
2023-03-10T07:59:42.109Z,97524.72
2023-03-10T08:02:11.628Z,97522.78
2023-03-10T08:04:39.211Z,97519.84
2023-03-10T08:07:06.525Z,97513.06
2023-03-10T08:09:33.730Z,97516.41
2023-03-10T08:12:01.816Z,97518.06
2023-03-10T08:14:29.447Z,97512.12
2023-03-10T08:16:56.968Z,97502.38
2023-03-10T08:19:24.902Z,97493.56
2023-03-10T08:21:54.176Z,97493.59
2023-03-10T08:24:21.328Z,97492.22
2023-03-10T08:26:49.689Z,97497.88
2023-03-10T08:29:16.907Z,97488.56
2023-03-10T08:31:44.084Z,97480.78
2023-03-10T08:34:11.573Z,97477.28
2023-03-10T08:36:39.156Z,97481.56
2023-03-10T08:39:06.707Z,97473.34
2023-03-10T08:41:46.718Z,97480.59
2023-03-10T08:44:15.538Z,97465.22
2023-03-10T08:46:46.393Z,97472.31
2023-03-10T08:49:14.942Z,97465.84
2023-03-10T08:51:42.717Z,97468.25
2023-03-10T08:54:16.620Z,97460.28
2023-03-10T08:56:44.084Z,97454.50
2023-03-10T08:59:11.291Z,97456.00
2023-03-10T09:01:38.528Z,97455.63
2023-03-10T09:04:07.063Z,97460.78
2023-03-10T09:06:34.443Z,97447.13
2023-03-10T09:09:01.644Z,97446.09
2023-03-10T09:11:32.551Z,97446.22
2023-03-10T09:14:00.304Z,97448.94
2023-03-10T09:16:28.712Z,97442.06
2023-03-10T09:18:56.740Z,97436.22
2023-03-10T09:21:23.877Z,97431.66
2023-03-10T09:23:52.822Z,97441.13
2023-03-10T09:26:20.414Z,97431.59
2023-03-10T09:28:49.444Z,97437.47
2023-03-10T09:31:21.805Z,97425.31
2023-03-10T09:33:49.265Z,97426.66
2023-03-10T09:36:17.213Z,97414.16
2023-03-10T09:38:44.392Z,97414.38
2023-03-10T09:41:32.273Z,97413.31
2023-03-10T09:44:19.486Z,97404.78
2023-03-10T09:47:01.808Z,97399.91
2023-03-10T09:49:32.384Z,97384.47
2023-03-10T09:51:59.800Z,97387.53
2023-03-10T09:54:51.239Z,97397.34
2023-03-10T09:57:19.131Z,97403.03
2023-03-10T09:59:46.386Z,97385.06
2023-03-10T10:02:46.083Z,97386.84
2023-03-10T10:05:20.434Z,97376.09
2023-03-10T10:07:49.484Z,97386.59
2023-03-10T10:10:18.374Z,97368.91
2023-03-10T10:12:46.856Z,97371.22
2023-03-10T10:15:15.929Z,97385.13
2023-03-10T10:17:55.027Z,97368.84
2023-03-10T10:20:27.567Z,97356.94
2023-03-10T10:22:54.982Z,97357.66
2023-03-10T10:25:22.866Z,97344.06
2023-03-10T10:27:52.287Z,97334.88
2023-03-10T10:30:26.827Z,97328.13
2023-03-10T10:33:13.320Z,97326.59
2023-03-10T10:35:42.165Z,97314.84
2023-03-10T10:38:09.323Z,97329.53
2023-03-10T10:40:50.002Z,97323.72
2023-03-10T10:43:18.217Z,97302.16
2023-03-10T10:45:45.535Z,97307.06
2023-03-10T10:48:36.669Z,97310.41
2023-03-10T10:51:04.740Z,97297.41
2023-03-10T10:53:35.397Z,97304.00
2023-03-10T10:56:06.726Z,97289.50
2023-03-10T10:58:35.425Z,97307.09
2023-03-10T11:01:04.103Z,97287.50
2023-03-10T11:03:35.488Z,97288.28
2023-03-10T11:06:23.157Z,97269.22
2023-03-10T11:08:53.285Z,97275.50
2023-03-10T11:11:26.663Z,97253.44
2023-03-10T11:13:56.797Z,97253.22
2023-03-10T11:16:24.244Z,97236.72
2023-03-10T11:18:53.132Z,97246.97
2023-03-10T11:21:26.025Z,97239.09
2023-03-10T11:24:10.924Z,97233.00
2023-03-10T11:26:38.090Z,97239.19
2023-03-10T11:29:24.195Z,97228.28
2023-03-10T11:31:54.373Z,97222.25
2023-03-10T11:34:31.530Z,97216.44
2023-03-10T11:37:01.495Z,97211.97
2023-03-10T11:39:34.727Z,97205.31
2023-03-10T11:42:28.051Z,97196.63
2023-03-10T11:44:55.442Z,97196.91
2023-03-10T11:47:34.927Z,97195.41
2023-03-10T11:50:06.059Z,97188.56
2023-03-10T11:52:33.320Z,97178.19
2023-03-10T11:55:05.745Z,97176.94
2023-03-10T11:57:35.304Z,97178.16
2023-03-10T12:00:05.690Z,97163.63
2023-03-10T12:02:41.377Z,97163.78
2023-03-10T12:05:22.619Z,97163.69
2023-03-10T12:07:50.571Z,97147.72
2023-03-10T12:10:19.257Z,97149.63
2023-03-10T12:12:47.247Z,97138.66
2023-03-10T12:15:19.584Z,97135.41
2023-03-10T12:17:47.048Z,97124.16
2023-03-10T12:20:18.142Z,97126.78
2023-03-10T12:22:50.298Z,97122.81
2023-03-10T12:25:27.100Z,97115.00
2023-03-10T12:28:13.382Z,97106.69
2023-03-10T12:30:43.609Z,97104.56
2023-03-10T12:33:29.329Z,97115.88
2023-03-10T12:36:09.632Z,97098.50
2023-03-10T12:38:36.883Z,97096.44
2023-03-10T12:41:04.403Z,97094.63
2023-03-10T12:43:43.907Z,97095.81
2023-03-10T12:46:11.986Z,97080.72
2023-03-10T12:48:40.376Z,97088.72
2023-03-10T12:51:09.945Z,97076.50
2023-03-10T12:53:48.311Z,97072.50
2023-03-10T12:56:15.397Z,97065.69
2023-03-10T12:58:48.759Z,97055.50
2023-03-10T13:01:17.789Z,97053.31
2023-03-10T13:03:46.444Z,97057.78
2023-03-10T13:06:13.652Z,97043.66
2023-03-10T13:08:47.532Z,97044.44
2023-03-10T13:11:17.952Z,97049.38
2023-03-10T13:13:47.358Z,97038.22
2023-03-10T13:16:21.248Z,97033.94
2023-03-10T13:18:49.198Z,97032.19
2023-03-10T13:21:42.925Z,97034.94
2023-03-10T13:24:36.639Z,97036.28
2023-03-10T13:27:17.336Z,97039.56
2023-03-10T13:29:54.426Z,97039.94
2023-03-10T13:32:22.171Z,97034.44
2023-03-10T13:34:49.377Z,97021.25
2023-03-10T13:37:16.612Z,97016.13
2023-03-10T13:39:44.045Z,97012.94
2023-03-10T13:42:37.136Z,96999.22
2023-03-10T13:45:13.908Z,97000.97
2023-03-10T13:47:41.282Z,97006.37
2023-03-10T13:50:13.193Z,97007.34
2023-03-10T13:52:41.245Z,97004.31
2023-03-10T13:55:12.445Z,97000.69
2023-03-10T13:57:40.235Z,97000.41
2023-03-10T14:00:10.334Z,97000.69
2023-03-10T14:02:39.766Z,97001.19
2023-03-10T14:05:08.304Z,96993.03
2023-03-10T14:07:38.613Z,96998.84
2023-03-10T14:10:10.236Z,96997.87
2023-03-10T14:12:48.066Z,96993.94
2023-03-10T14:15:15.190Z,96995.59
2023-03-10T14:17:43.618Z,96996.72
2023-03-10T14:20:11.387Z,96998.87
2023-03-10T14:22:41.328Z,96996.88
2023-03-10T14:25:10.795Z,96987.28
2023-03-10T14:27:40.511Z,96988.44
2023-03-10T14:30:30.596Z,96981.56
2023-03-10T14:32:58.569Z,96984.25
2023-03-10T14:35:26.447Z,96976.97
2023-03-10T14:37:53.823Z,96967.56
2023-03-10T14:40:21.641Z,96965.19
2023-03-10T14:42:49.781Z,96960.75
2023-03-10T14:45:27.879Z,96964.97
2023-03-10T14:47:56.097Z,96960.37
2023-03-10T14:50:23.506Z,96969.69
2023-03-10T14:52:50.666Z,96955.91
2023-03-10T14:55:18.105Z,96948.62
2023-03-10T14:57:45.471Z,96941.47
2023-03-10T15:00:18.541Z,96951.44
2023-03-10T15:02:46.417Z,96940.62
2023-03-10T15:05:17.654Z,96941.12
2023-03-10T15:07:44.996Z,96937.72
2023-03-10T15:10:12.976Z,96946.94
2023-03-10T15:12:40.508Z,96954.06
2023-03-10T15:15:10.650Z,96955.13
2023-03-10T15:17:40.982Z,96949.09
2023-03-10T15:20:14.433Z,96949.19
2023-03-10T15:22:42.351Z,96946.75
2023-03-10T15:25:09.664Z,96939.72
2023-03-10T15:27:36.791Z,96949.53
2023-03-10T15:30:04.840Z,96945.09
2023-03-10T15:32:32.065Z,96951.66
2023-03-10T15:34:59.229Z,96948.34
2023-03-10T15:37:27.909Z,96952.66
2023-03-10T15:39:55.047Z,96950.06
2023-03-10T15:42:22.392Z,96958.78
2023-03-10T15:44:50.106Z,96949.09
2023-03-10T15:47:17.251Z,96950.78
2023-03-10T15:49:44.701Z,96943.28
2023-03-10T15:52:12.235Z,96948.00
2023-03-10T15:54:40.157Z,96953.31
2023-03-10T15:57:09.678Z,96958.78
2023-03-10T15:59:38.162Z,96961.81
2023-03-10T16:02:05.461Z,96953.25
2023-03-10T16:04:33.324Z,96954.91
2023-03-10T16:07:03.960Z,96947.16
2023-03-10T16:09:31.111Z,96937.00
2023-03-10T16:11:58.584Z,96937.22
2023-03-10T16:14:26.479Z,96929.44
2023-03-10T16:16:53.670Z,96933.16
2023-03-10T16:19:21.379Z,96929.44
2023-03-10T16:21:48.519Z,96931.75
2023-03-10T16:24:15.951Z,96935.94
2023-03-10T16:26:44.830Z,96931.19
2023-03-10T16:29:12.259Z,96931.16
2023-03-10T16:31:39.651Z,96926.47
2023-03-10T16:34:07.825Z,96930.03
2023-03-10T16:36:36.884Z,96927.34
2023-03-10T16:39:08.947Z,96930.63
2023-03-10T16:41:36.537Z,96926.41
2023-03-10T16:44:07.118Z,96931.53
2023-03-10T16:46:34.330Z,96935.00
2023-03-10T16:49:02.585Z,96936.25
2023-03-10T16:51:38.118Z,96936.63
2023-03-10T16:54:07.118Z,96936.69
2023-03-10T16:56:38.718Z,96949.22
2023-03-10T16:59:06.792Z,96951.09
2023-03-10T17:01:34.071Z,96955.25
2023-03-10T17:04:01.752Z,96961.38
2023-03-10T17:06:30.878Z,96955.22
2023-03-10T17:08:58.652Z,96966.00
2023-03-10T17:11:27.691Z,96969.84
2023-03-10T17:13:56.156Z,96978.00
2023-03-10T17:16:25.086Z,96968.16
2023-03-10T17:18:52.372Z,96975.19
2023-03-10T17:21:21.380Z,96971.94
2023-03-10T17:23:48.985Z,96964.28
2023-03-10T17:26:17.329Z,96967.72
2023-03-10T17:28:46.329Z,96961.50
2023-03-10T17:31:14.729Z,96964.19
2023-03-10T17:33:43.527Z,96966.81
2023-03-10T17:36:12.695Z,96968.44
2023-03-10T17:38:42.108Z,96970.44
2023-03-10T17:41:10.742Z,96962.53
2023-03-10T17:43:40.568Z,96968.28
2023-03-10T17:46:11.405Z,96960.19
2023-03-10T17:48:39.590Z,96961.16
2023-03-10T17:51:07.607Z,96960.94
2023-03-10T17:53:35.479Z,96960.97
2023-03-10T17:56:04.985Z,96958.16
2023-03-10T17:58:32.822Z,96962.28
2023-03-10T18:01:10.854Z,96966.19
2023-03-10T18:03:39.333Z,96957.84
2023-03-10T18:06:13.003Z,96958.09
2023-03-10T18:08:41.981Z,96955.97
2023-03-10T18:11:09.942Z,96956.81
2023-03-10T18:13:39.086Z,96963.28
2023-03-10T18:16:07.357Z,96977.16
2023-03-10T18:18:34.789Z,97007.94
2023-03-10T18:21:03.645Z,97010.06
2023-03-10T18:23:31.857Z,97012.78
2023-03-10T18:25:59.923Z,97012.81
2023-03-10T18:28:27.819Z,97016.47
2023-03-10T18:30:58.782Z,97015.66
2023-03-10T18:33:26.675Z,97008.41
2023-03-10T18:35:56.241Z,96998.94
2023-03-10T18:38:25.983Z,96997.06
2023-03-10T18:41:00.767Z,96996.31
2023-03-10T18:43:29.811Z,96988.22
2023-03-10T18:45:58.613Z,96986.31
2023-03-10T18:48:28.538Z,96986.31
2023-03-10T18:50:58.245Z,96988.34
2023-03-10T18:53:26.803Z,96992.84
2023-03-10T18:55:55.102Z,97005.31
2023-03-10T18:58:23.291Z,97007.09
2023-03-10T19:00:51.298Z,97022.63
2023-03-10T19:03:19.732Z,97028.03
2023-03-10T19:05:52.944Z,97028.22
2023-03-10T20:04:00.212Z,97025.56
2023-03-10T20:06:29.913Z,97035.63
2023-03-10T20:08:59.218Z,97040.81
2023-03-10T20:11:28.313Z,97043.59
2023-03-10T20:13:59.687Z,97051.97
2023-03-10T20:16:28.684Z,97043.44
2023-03-10T20:18:57.730Z,97046.28
2023-03-10T20:21:27.550Z,97044.97
2023-03-10T20:23:58.909Z,97035.75
2023-03-10T20:26:27.809Z,97024.75
2023-03-10T20:28:56.463Z,97015.16
2023-03-10T20:31:26.296Z,96997.03
2023-03-10T20:33:56.004Z,96966.75
2023-03-10T20:36:25.095Z,96950.97
2023-03-10T20:38:54.346Z,96934.19
2023-03-10T20:41:22.630Z,96909.88
2023-03-10T20:43:53.992Z,96918.53
2023-03-10T20:46:23.209Z,96916.00
2023-03-10T20:48:52.650Z,96930.56
2023-03-10T20:51:23.024Z,96942.16
2023-03-10T20:53:52.141Z,96965.19
2023-03-10T20:56:20.288Z,96968.56
2023-03-10T20:58:48.827Z,96958.72
2023-03-10T21:01:19.885Z,96970.44
2023-03-10T21:03:48.383Z,96985.38
2023-03-10T21:06:18.828Z,96972.19
2023-03-10T21:08:48.111Z,96971.44
2023-03-10T21:11:17.106Z,96976.75
2023-03-10T21:13:46.201Z,96973.13
2023-03-10T21:16:14.427Z,96974.06
2023-03-10T21:18:42.368Z,96977.16
2023-03-10T21:21:12.623Z,96977.75
2023-03-10T21:23:42.486Z,96977.66
2023-03-10T21:26:16.804Z,96974.31
2023-03-10T21:28:44.816Z,96976.56
2023-03-10T21:31:13.590Z,96975.94
2023-03-10T21:33:45.028Z,96987.94
2023-03-10T21:36:21.658Z,96981.44
2023-03-10T21:38:50.243Z,96988.44
2023-03-10T21:41:21.315Z,96984.63
2023-03-10T21:43:49.911Z,96994.81
2023-03-10T21:46:18.232Z,96992.97
2023-03-10T21:48:45.966Z,96995.69
2023-03-10T21:51:18.337Z,96984.47
2023-03-10T21:53:46.603Z,96984.22
2023-03-10T21:56:17.975Z,97000.47
2023-03-10T21:58:46.812Z,97004.91
2023-03-10T22:01:16.134Z,97012.00
2023-03-10T22:03:44.354Z,97010.38
2023-03-10T22:06:11.824Z,97008.28
2023-03-10T22:08:39.224Z,97013.06
2023-03-10T22:11:08.377Z,97014.41
2023-03-10T22:13:37.415Z,97009.78
2023-03-10T22:16:06.930Z,97008.00
2023-03-10T22:18:34.623Z,97002.94
2023-03-10T22:21:02.095Z,96999.50
2023-03-10T22:23:29.767Z,96996.56
2023-03-10T22:25:57.574Z,96989.16
2023-03-10T22:28:25.315Z,96988.75
2023-03-10T22:30:53.083Z,96988.47
2023-03-10T22:33:20.943Z,96986.38
2023-03-10T22:35:52.157Z,96983.44
2023-03-10T22:38:20.439Z,96973.78
2023-03-10T22:40:48.936Z,96974.00
2023-03-10T22:43:16.417Z,96970.81
2023-03-10T22:45:43.907Z,96961.88
2023-03-10T22:48:11.736Z,96973.41
2023-03-10T22:50:41.686Z,96968.00
2023-03-10T22:53:14.532Z,96976.41
2023-03-10T22:55:43.635Z,96975.91
2023-03-10T22:58:11.301Z,96974.63
2023-03-10T23:00:39.765Z,96985.56
2023-03-10T23:03:08.959Z,96986.47
2023-03-10T23:05:36.473Z,96981.47
2023-03-10T23:08:04.675Z,96982.22
2023-03-10T23:10:34.408Z,96985.41
2023-03-10T23:13:04.790Z,96984.63
2023-03-10T23:15:34.745Z,96974.63
2023-03-10T23:18:02.267Z,96978.44
2023-03-10T23:20:33.378Z,96984.75
2023-03-10T23:23:03.768Z,96983.13
2023-03-10T23:25:37.850Z,97003.06
2023-03-10T23:28:07.267Z,96994.09
2023-03-10T23:30:35.901Z,97007.50
2023-03-10T23:33:03.515Z,97004.91
2023-03-10T23:35:33.640Z,97008.25
2023-03-10T23:38:02.515Z,97013.34
2023-03-10T23:40:31.471Z,97010.31
2023-03-10T23:43:00.584Z,97013.22
2023-03-10T23:45:29.797Z,97008.50
2023-03-10T23:47:59.220Z,97009.81
2023-03-10T23:50:30.349Z,97007.81
2023-03-10T23:53:02.768Z,97016.88
2023-03-10T23:55:34.087Z,97001.59
2023-03-10T23:58:01.743Z,96994.62
